sensor_id;sensor_type;location;lat;lon;timestamp;pressure;altitude;pressure_sealevel;temperature;humidity
42945;BME280;28584;42.636;23.294;2022-12-18T00:01:26;83019.88;;;5.79;100.00
42945;BME280;28584;42.636;23.294;2022-12-18T00:03:54;82693.78;;;5.80;100.00
42945;BME280;28584;42.636;23.294;2022-12-18T00:06:20;82567.47;;;5.64;100.00
42945;BME280;28584;42.636;23.294;2022-12-18T00:08:46;82443.25;;;5.46;100.00
42945;BME280;28584;42.636;23.294;2022-12-18T00:11:14;82316.38;;;5.40;100.00
42945;BME280;28584;42.636;23.294;2022-12-18T00:13:40;82178.75;;;5.30;100.00
42945;BME280;28584;42.636;23.294;2022-12-18T00:16:09;81961.56;;;5.33;100.00
42945;BME280;28584;42.636;23.294;2022-12-18T00:18:35;81801.06;;;5.32;100.00
42945;BME280;28584;42.636;23.294;2022-12-18T00:21:03;81699.94;;;5.25;100.00
42945;BME280;28584;42.636;23.294;2022-12-18T00:23:30;81763.41;;;5.14;100.00
42945;BME280;28584;42.636;23.294;2022-12-18T00:26:04;81805.25;;;5.09;100.00
42945;BME280;28584;42.636;23.294;2022-12-18T00:28:30;81815.38;;;5.05;100.00
42945;BME280;28584;42.636;23.294;2022-12-18T00:31:08;81969.75;;;5.07;100.00
42945;BME280;28584;42.636;23.294;2022-12-18T00:33:34;82072.25;;;5.11;100.00
42945;BME280;28584;42.636;23.294;2022-12-18T00:38:28;82030.44;;;5.12;100.00
42945;BME280;28584;42.636;23.294;2022-12-18T00:40:54;82222.59;;;5.03;100.00
42945;BME280;28584;42.636;23.294;2022-12-18T00:43:19;82255.63;;;4.97;100.00
42945;BME280;28584;42.636;23.294;2022-12-18T00:45:45;82461.84;;;4.86;100.00
42945;BME280;28584;42.636;23.294;2022-12-18T00:48:10;82882.53;;;4.88;100.00
42945;BME280;28584;42.636;23.294;2022-12-18T00:50:35;83173.81;;;4.90;100.00
42945;BME280;28584;42.636;23.294;2022-12-18T00:53:01;83146.94;;;4.96;100.00
42945;BME280;28584;42.636;23.294;2022-12-18T00:55:26;83367.41;;;4.94;100.00
42945;BME280;28584;42.636;23.294;2022-12-18T00:57:52;83120.56;;;4.89;100.00
42945;BME280;28584;42.636;23.294;2022-12-18T01:00:17;83183.25;;;4.89;100.00
42945;BME280;28584;42.636;23.294;2022-12-18T01:02:43;83045.59;;;4.83;100.00
42945;BME280;28584;42.636;23.294;2022-12-18T01:05:11;82943.91;;;4.90;100.00
42945;BME280;28584;42.636;23.294;2022-12-18T01:07:37;82926.22;;;4.77;100.00
42945;BME280;28584;42.636;23.294;2022-12-18T01:10:03;82921.38;;;4.67;100.00
42945;BME280;28584;42.636;23.294;2022-12-18T01:12:29;83121.31;;;4.54;100.00
42945;BME280;28584;42.636;23.294;2022-12-18T01:14:54;83305.69;;;4.41;100.00
42945;BME280;28584;42.636;23.294;2022-12-18T01:17:19;83687.41;;;4.28;100.00
42945;BME280;28584;42.636;23.294;2022-12-18T01:19:45;84256.13;;;4.13;100.00
42945;BME280;28584;42.636;23.294;2022-12-18T01:22:10;84756.53;;;4.10;100.00
42945;BME280;28584;42.636;23.294;2022-12-18T01:24:36;85225.84;;;4.05;100.00
42945;BME280;28584;42.636;23.294;2022-12-18T01:27:01;85891.47;;;3.93;100.00
42945;BME280;28584;42.636;23.294;2022-12-18T01:29:26;86494.22;;;3.98;100.00
42945;BME280;28584;42.636;23.294;2022-12-18T01:31:55;87297.78;;;3.93;100.00
42945;BME280;28584;42.636;23.294;2022-12-18T01:34:21;88128.03;;;3.91;100.00
42945;BME280;28584;42.636;23.294;2022-12-18T01:36:46;89578.34;;;3.90;100.00
42945;BME280;28584;42.636;23.294;2022-12-18T01:39:14;90685.75;;;3.89;100.00
42945;BME280;28584;42.636;23.294;2022-12-18T01:41:40;91328.75;;;3.81;100.00
42945;BME280;28584;42.636;23.294;2022-12-18T01:50:22;95106.34;;;3.72;100.00
42945;BME280;28584;42.636;23.294;2022-12-18T01:52:51;95841.38;;;3.67;100.00
42945;BME280;28584;42.636;23.294;2022-12-18T01:55:19;96741.34;;;3.57;100.00
42945;BME280;28584;42.636;23.294;2022-12-18T01:57:47;97653.06;;;3.56;100.00
42945;BME280;28584;42.636;23.294;2022-12-18T02:00:15;98670.63;;;3.49;100.00
42945;BME280;28584;42.636;23.294;2022-12-18T02:02:43;99831.66;;;3.46;100.00
42945;BME280;28584;42.636;23.294;2022-12-18T02:05:10;100964.47;;;3.41;100.00
42945;BME280;28584;42.636;23.294;2022-12-18T02:07:49;102540.31;;;3.44;100.00
42945;BME280;28584;42.636;23.294;2022-12-18T02:15:47;105559.47;;;3.41;100.00
42945;BME280;28584;42.636;23.294;2022-12-18T02:18:21;106502.72;;;3.45;100.00
42945;BME280;28584;42.636;23.294;2022-12-18T02:20:58;107187.84;;;3.52;100.00
42945;BME280;28584;42.636;23.294;2022-12-18T02:28:55;108023.97;;;3.67;100.00
42945;BME280;28584;42.636;23.294;2022-12-18T02:31:26;107909.19;;;3.68;100.00
42945;BME280;28584;42.636;23.294;2022-12-18T02:33:55;107884.84;;;3.66;100.00
42945;BME280;28584;42.636;23.294;2022-12-18T02:36:22;107711.34;;;3.66;100.00
42945;BME280;28584;42.636;23.294;2022-12-18T02:38:50;107231.00;;;3.57;100.00
42945;BME280;28584;42.636;23.294;2022-12-18T02:41:16;106690.44;;;3.47;100.00
42945;BME280;28584;42.636;23.294;2022-12-18T02:44:06;105787.84;;;3.42;100.00
42945;BME280;28584;42.636;23.294;2022-12-18T02:46:36;105555.81;;;3.42;100.00
42945;BME280;28584;42.636;23.294;2022-12-18T02:51:47;104715.19;;;3.35;100.00
42945;BME280;28584;42.636;23.294;2022-12-18T02:56:51;104113.72;;;3.21;100.00
42945;BME280;28584;42.636;23.294;2022-12-18T02:59:33;103991.63;;;3.14;100.00
42945;BME280;28584;42.636;23.294;2022-12-18T03:04:43;104184.94;;;3.10;100.00
42945;BME280;28584;42.636;23.294;2022-12-18T03:07:19;104326.03;;;3.06;100.00
42945;BME280;28584;42.636;23.294;2022-12-18T03:09:48;104740.19;;;3.03;100.00
42945;BME280;28584;42.636;23.294;2022-12-18T03:12:20;105090.84;;;3.05;100.00
42945;BME280;28584;42.636;23.294;2022-12-18T03:15:12;105223.06;;;3.11;100.00
42945;BME280;28584;42.636;23.294;2022-12-18T03:17:44;105408.91;;;3.11;100.00
42945;BME280;28584;42.636;23.294;2022-12-18T03:20:18;105643.50;;;3.10;100.00
42945;BME280;28584;42.636;23.294;2022-12-18T03:22:46;105632.31;;;3.16;100.00
42945;BME280;28584;42.636;23.294;2022-12-18T03:25:16;105407.38;;;3.21;100.00
42945;BME280;28584;42.636;23.294;2022-12-18T03:27:47;105547.69;;;3.28;100.00
42945;BME280;28584;42.636;23.294;2022-12-18T03:30:15;104384.97;;;3.35;100.00
42945;BME280;28584;42.636;23.294;2022-12-18T03:35:21;102577.50;;;3.58;100.00
42945;BME280;28584;42.636;23.294;2022-12-18T03:37:47;101435.03;;;3.62;100.00
42945;BME280;28584;42.636;23.294;2022-12-18T03:40:13;99777.00;;;3.67;100.00
42945;BME280;28584;42.636;23.294;2022-12-18T03:45:23;94821.50;;;3.66;100.00
42945;BME280;28584;42.636;23.294;2022-12-18T03:50:49;91842.72;;;3.67;100.00
42945;BME280;28584;42.636;23.294;2022-12-18T03:55:49;91383.09;;;3.61;100.00
42945;BME280;28584;42.636;23.294;2022-12-18T03:58:19;91499.72;;;3.65;100.00
42945;BME280;28584;42.636;23.294;2022-12-18T04:00:48;91745.59;;;3.67;100.00
42945;BME280;28584;42.636;23.294;2022-12-18T04:03:16;92812.09;;;3.59;100.00
42945;BME280;28584;42.636;23.294;2022-12-18T04:05:43;94002.38;;;3.48;100.00
42945;BME280;28584;42.636;23.294;2022-12-18T04:08:09;94356.41;;;3.47;100.00
42945;BME280;28584;42.636;23.294;2022-12-18T04:10:35;94277.34;;;3.46;100.00
42945;BME280;28584;42.636;23.294;2022-12-18T04:13:01;94450.41;;;3.41;100.00
42945;BME280;28584;42.636;23.294;2022-12-18T04:15:26;95016.19;;;3.42;100.00
42945;BME280;28584;42.636;23.294;2022-12-18T04:17:51;95125.56;;;3.36;100.00
42945;BME280;28584;42.636;23.294;2022-12-18T04:20:17;94739.78;;;3.28;100.00
42945;BME280;28584;42.636;23.294;2022-12-18T04:22:43;94412.78;;;3.26;100.00
42945;BME280;28584;42.636;23.294;2022-12-18T04:25:09;93996.06;;;3.20;100.00
42945;BME280;28584;42.636;23.294;2022-12-18T04:27:37;94637.69;;;3.11;100.00
42945;BME280;28584;42.636;23.294;2022-12-18T04:30:03;95098.28;;;3.10;100.00
42945;BME280;28584;42.636;23.294;2022-12-18T04:32:28;96022.56;;;3.13;100.00
42945;BME280;28584;42.636;23.294;2022-12-18T04:34:53;96026.50;;;3.15;100.00
42945;BME280;28584;42.636;23.294;2022-12-18T04:37:19;97314.41;;;3.10;100.00
42945;BME280;28584;42.636;23.294;2022-12-18T04:39:44;99079.13;;;3.09;100.00
42945;BME280;28584;42.636;23.294;2022-12-18T04:42:09;100154.47;;;3.09;100.00
42945;BME280;28584;42.636;23.294;2022-12-18T04:44:36;102214.56;;;3.14;100.00
42945;BME280;28584;42.636;23.294;2022-12-18T04:47:01;102948.22;;;3.07;100.00
42945;BME280;28584;42.636;23.294;2022-12-18T04:49:27;102110.34;;;3.04;100.00
42945;BME280;28584;42.636;23.294;2022-12-18T04:51:52;101433.47;;;3.05;100.00
42945;BME280;28584;42.636;23.294;2022-12-18T04:54:18;102684.72;;;3.01;100.00
42945;BME280;28584;42.636;23.294;2022-12-18T04:56:43;105001.88;;;3.01;100.00
42945;BME280;28584;42.636;23.294;2022-12-18T04:59:08;106374.88;;;3.00;100.00
42945;BME280;28584;42.636;23.294;2022-12-18T05:01:34;106381.38;;;2.96;100.00
42945;BME280;28584;42.636;23.294;2022-12-18T05:04:00;107060.00;;;2.92;100.00
42945;BME280;28584;42.636;23.294;2022-12-18T05:06:25;106629.63;;;2.92;100.00
42945;BME280;28584;42.636;23.294;2022-12-18T05:08:50;107486.03;;;2.88;100.00
42945;BME280;28584;42.636;23.294;2022-12-18T05:11:16;108363.22;;;2.89;100.00
42945;BME280;28584;42.636;23.294;2022-12-18T05:13:43;109813.97;;;2.84;100.00
42945;BME280;28584;42.636;23.294;2022-12-18T05:16:09;110205.88;;;2.87;100.00
42945;BME280;28584;42.636;23.294;2022-12-18T05:18:34;110877.00;;;2.91;100.00
42945;BME280;28584;42.636;23.294;2022-12-18T05:21:00;114175.47;;;2.90;100.00
42945;BME280;28584;42.636;23.294;2022-12-18T05:23:26;116997.03;;;2.94;100.00
42945;BME280;28584;42.636;23.294;2022-12-18T05:25:54;118340.88;;;2.93;100.00
42945;BME280;28584;42.636;23.294;2022-12-18T05:28:20;120999.38;;;2.97;100.00
42945;BME280;28584;42.636;23.294;2022-12-18T05:30:50;123045.53;;;3.00;100.00
42945;BME280;28584;42.636;23.294;2022-12-18T05:33:17;123504.84;;;3.03;100.00
42945;BME280;28584;42.636;23.294;2022-12-18T05:35:43;124096.09;;;2.99;100.00
42945;BME280;28584;42.636;23.294;2022-12-18T05:38:09;126281.91;;;2.98;100.00
42945;BME280;28584;42.636;23.294;2022-12-18T05:40:35;129302.50;;;2.97;100.00
42945;BME280;28584;42.636;23.294;2022-12-18T05:43:00;135320.19;;;2.97;100.00
42945;BME280;28584;42.636;23.294;2022-12-18T05:45:25;137987.53;;;2.93;100.00
42945;BME280;28584;42.636;23.294;2022-12-18T05:47:51;137333.09;;;2.92;100.00
42945;BME280;28584;42.636;23.294;2022-12-18T05:50:16;137666.00;;;2.95;100.00
42945;BME280;28584;42.636;23.294;2022-12-18T05:52:41;136429.94;;;2.90;100.00
42945;BME280;28584;42.636;23.294;2022-12-18T05:55:07;133291.72;;;2.86;100.00
42945;BME280;28584;42.636;23.294;2022-12-18T05:57:33;128506.75;;;2.70;100.00
42945;BME280;28584;42.636;23.294;2022-12-18T06:00:05;120805.72;;;2.59;100.00
42945;BME280;28584;42.636;23.294;2022-12-18T06:02:31;115483.66;;;2.61;100.00
42945;BME280;28584;42.636;23.294;2022-12-18T06:04:56;110313.56;;;2.51;100.00
42945;BME280;28584;42.636;23.294;2022-12-18T06:07:22;110000.53;;;2.59;100.00
42945;BME280;28584;42.636;23.294;2022-12-18T06:09:47;112908.91;;;2.58;100.00
42945;BME280;28584;42.636;23.294;2022-12-18T06:12:12;115634.59;;;2.60;100.00
42945;BME280;28584;42.636;23.294;2022-12-18T06:14:38;115655.31;;;2.60;100.00
42945;BME280;28584;42.636;23.294;2022-12-18T06:17:04;115933.53;;;2.58;100.00
42945;BME280;28584;42.636;23.294;2022-12-18T06:19:29;117802.88;;;2.65;100.00
42945;BME280;28584;42.636;23.294;2022-12-18T06:21:54;121497.81;;;2.70;100.00
42945;BME280;28584;42.636;23.294;2022-12-18T06:24:22;127517.09;;;2.68;100.00
42945;BME280;28584;42.636;23.294;2022-12-18T06:26:48;137663.94;;;2.75;100.00
42945;BME280;28584;42.636;23.294;2022-12-18T06:29:13;146739.25;;;2.76;100.00
42945;BME280;28584;42.636;23.294;2022-12-18T06:31:38;153089.06;;;2.82;100.00
42945;BME280;28584;42.636;23.294;2022-12-18T06:34:04;157744.88;;;2.84;100.00
42945;BME280;28584;42.636;23.294;2022-12-18T06:36:30;159319.56;;;2.86;100.00
42945;BME280;28584;42.636;23.294;2022-12-18T06:38:56;159328.88;;;2.90;100.00
42945;BME280;28584;42.636;23.294;2022-12-18T06:41:22;159336.84;;;2.93;100.00
42945;BME280;28584;42.636;23.294;2022-12-18T06:43:47;159334.16;;;2.92;100.00
42945;BME280;28584;42.636;23.294;2022-12-18T06:46:13;159363.34;;;3.03;100.00
42945;BME280;28584;42.636;23.294;2022-12-18T06:48:38;159381.94;;;3.10;100.00
42945;BME280;28584;42.636;23.294;2022-12-18T06:51:04;159388.63;;;3.13;100.00
42945;BME280;28584;42.636;23.294;2022-12-18T06:53:30;159388.63;;;3.13;100.00
42945;BME280;28584;42.636;23.294;2022-12-18T06:56:03;159391.25;;;3.14;100.00
42945;BME280;28584;42.636;23.294;2022-12-18T06:58:29;159388.63;;;3.13;100.00
42945;BME280;28584;42.636;23.294;2022-12-18T07:01:00;159379.28;;;3.09;100.00
42945;BME280;28584;42.636;23.294;2022-12-18T07:03:26;159392.59;;;3.14;100.00
42945;BME280;28584;42.636;23.294;2022-12-18T07:05:51;159389.91;;;3.13;100.00
42945;BME280;28584;42.636;23.294;2022-12-18T07:08:17;159405.88;;;3.19;100.00
42945;BME280;28584;42.636;23.294;2022-12-18T07:10:43;159389.91;;;3.13;100.00
42945;BME280;28584;42.636;23.294;2022-12-18T07:13:08;159392.59;;;3.14;100.00
42945;BME280;28584;42.636;23.294;2022-12-18T07:15:34;159367.34;;;3.05;100.00
42945;BME280;28584;42.636;23.294;2022-12-18T07:17:59;159378.00;;;3.09;100.00
42945;BME280;28584;42.636;23.294;2022-12-18T07:20:24;159389.91;;;3.13;100.00
42945;BME280;28584;42.636;23.294;2022-12-18T07:22:50;159396.59;;;3.16;100.00
42945;BME280;28584;42.636;23.294;2022-12-18T07:25:15;159376.66;;;3.08;100.00
42945;BME280;28584;42.636;23.294;2022-12-18T07:27:40;159391.25;;;3.14;100.00
42945;BME280;28584;42.636;23.294;2022-12-18T07:30:06;159387.28;;;3.12;100.00
42945;BME280;28584;42.636;23.294;2022-12-18T07:32:32;159381.94;;;3.10;100.00
42945;BME280;28584;42.636;23.294;2022-12-18T07:34:57;159371.31;;;3.06;100.00
42945;BME280;28584;42.636;23.294;2022-12-18T07:37:23;159403.22;;;3.18;100.00
42945;BME280;28584;42.636;23.294;2022-12-18T07:39:48;159396.59;;;3.16;100.00
42945;BME280;28584;42.636;23.294;2022-12-18T07:42:13;159389.91;;;3.13;100.00
42945;BME280;28584;42.636;23.294;2022-12-18T07:45:00;159374.00;;;3.07;100.00
42945;BME280;28584;42.636;23.294;2022-12-18T07:47:27;159360.72;;;3.02;100.00
42945;BME280;28584;42.636;23.294;2022-12-18T07:49:52;159358.06;;;3.01;100.00
42945;BME280;28584;42.636;23.294;2022-12-18T07:52:18;159363.34;;;3.03;100.00
42945;BME280;28584;42.636;23.294;2022-12-18T07:54:44;159354.09;;;3.00;100.00
42945;BME280;28584;42.636;23.294;2022-12-18T07:57:10;159358.06;;;3.01;100.00
42945;BME280;28584;42.636;23.294;2022-12-18T07:59:36;159343.47;;;2.96;100.00
42945;BME280;28584;42.636;23.294;2022-12-18T08:02:02;159387.28;;;3.12;100.00
42945;BME280;28584;42.636;23.294;2022-12-18T08:04:28;159399.22;;;3.17;100.00
42945;BME280;28584;42.636;23.294;2022-12-18T08:06:53;159412.50;;;3.22;100.00
42945;BME280;28584;42.636;23.294;2022-12-18T08:09:19;159397.88;;;3.16;100.00
42945;BME280;28584;42.636;23.294;2022-12-18T08:11:44;159371.31;;;3.06;100.00
42945;BME280;28584;42.636;23.294;2022-12-18T08:14:10;159320.88;;;2.87;100.00
42945;BME280;28584;42.636;23.294;2022-12-18T08:16:35;159332.84;;;2.92;100.00
42945;BME280;28584;42.636;23.294;2022-12-18T08:19:01;159310.28;;;2.83;100.00
42945;BME280;28584;42.636;23.294;2022-12-18T08:21:28;159318.25;;;2.86;100.00
42945;BME280;28584;42.636;23.294;2022-12-18T08:23:58;159299.66;;;2.79;100.00
42945;BME280;28584;42.636;23.294;2022-12-18T08:26:26;159315.56;;;2.85;100.00
42945;BME280;28584;42.636;23.294;2022-12-18T08:28:54;159334.16;;;2.92;100.00
42945;BME280;28584;42.636;23.294;2022-12-18T08:31:19;159358.06;;;3.01;100.00
42945;BME280;28584;42.636;23.294;2022-12-18T08:33:45;159334.16;;;2.92;100.00
42945;BME280;28584;42.636;23.294;2022-12-18T08:36:13;159366.03;;;3.04;100.00
42945;BME280;28584;42.636;23.294;2022-12-18T08:38:38;159381.94;;;3.10;100.00
42945;BME280;28584;42.636;23.294;2022-12-18T08:41:06;159371.31;;;3.06;100.00
42945;BME280;28584;42.636;23.294;2022-12-18T08:43:32;159326.19;;;2.89;100.00
42945;BME280;28584;42.636;23.294;2022-12-18T08:46:20;159344.75;;;2.96;100.00
42945;BME280;28584;42.636;23.294;2022-12-18T08:48:45;159359.41;;;3.02;100.00
42945;BME280;28584;42.636;23.294;2022-12-18T08:51:11;159385.94;;;3.12;100.00
42945;BME280;28584;42.636;23.294;2022-12-18T08:53:37;159383.28;;;3.11;100.00
42945;BME280;28584;42.636;23.294;2022-12-18T08:56:03;159350.09;;;2.98;100.00
42945;BME280;28584;42.636;23.294;2022-12-18T08:58:29;159343.47;;;2.96;100.00
42945;BME280;28584;42.636;23.294;2022-12-18T09:01:03;159334.16;;;2.92;100.00
42945;BME280;28584;42.636;23.294;2022-12-18T09:03:29;159352.72;;;2.99;100.00
42945;BME280;28584;42.636;23.294;2022-12-18T09:05:55;159334.16;;;2.92;100.00
42945;BME280;28584;42.636;23.294;2022-12-18T09:08:21;159291.69;;;2.76;100.00
42945;BME280;28584;42.636;23.294;2022-12-18T09:10:48;159315.56;;;2.85;100.00
42945;BME280;28584;42.636;23.294;2022-12-18T09:13:14;159291.69;;;2.76;100.00
42945;BME280;28584;42.636;23.294;2022-12-18T09:15:51;159273.13;;;2.69;100.00
42945;BME280;28584;42.636;23.294;2022-12-18T09:18:19;159259.81;;;2.64;100.00
42945;BME280;28584;42.636;23.294;2022-12-18T09:20:49;159209.41;;;2.45;100.00
42945;BME280;28584;42.636;23.294;2022-12-18T09:23:18;159225.28;;;2.51;100.00
42945;BME280;28584;42.636;23.294;2022-12-18T09:25:44;158877.66;;;2.41;100.00
42945;BME280;28584;42.636;23.294;2022-12-18T09:28:12;157820.41;;;2.48;100.00
42945;BME280;28584;42.636;23.294;2022-12-18T09:30:39;156867.47;;;2.55;100.00
42945;BME280;28584;42.636;23.294;2022-12-18T09:33:04;156606.53;;;2.67;100.00
42945;BME280;28584;42.636;23.294;2022-12-18T09:35:30;155587.63;;;2.65;100.00
42945;BME280;28584;42.636;23.294;2022-12-18T09:37:55;154745.75;;;2.72;100.00
42945;BME280;28584;42.636;23.294;2022-12-18T09:40:23;157976.09;;;2.79;100.00
42945;BME280;28584;42.636;23.294;2022-12-18T09:42:57;159328.88;;;2.90;100.00
42945;BME280;28584;42.636;23.294;2022-12-18T09:45:24;159273.13;;;2.69;100.00
42945;BME280;28584;42.636;23.294;2022-12-18T09:47:52;159267.78;;;2.67;100.00
42945;BME280;28584;42.636;23.294;2022-12-18T09:50:32;159302.31;;;2.80;100.00
42945;BME280;28584;42.636;23.294;2022-12-18T09:53:04;159360.72;;;3.02;100.00
42945;BME280;28584;42.636;23.294;2022-12-18T09:55:42;159383.28;;;3.11;100.00
42945;BME280;28584;42.636;23.294;2022-12-18T10:00:35;159445.69;;;3.34;100.00
42945;BME280;28584;42.636;23.294;2022-12-18T10:03:08;159562.59;;;3.78;100.00
42945;BME280;28584;42.636;23.294;2022-12-18T10:05:43;159522.75;;;3.63;100.00
42945;BME280;28584;42.636;23.294;2022-12-18T10:11:09;159590.53;;;3.89;100.00
42945;BME280;28584;42.636;23.294;2022-12-18T10:13:45;159613.13;;;3.97;100.00
42945;BME280;28584;42.636;23.294;2022-12-18T10:19:34;159421.81;;;3.25;100.00
42945;BME280;28584;42.636;23.294;2022-12-18T10:22:11;159440.41;;;3.32;100.00
42945;BME280;28584;42.636;23.294;2022-12-18T10:24:53;159432.44;;;3.29;100.00
42945;BME280;28584;42.636;23.294;2022-12-18T10:27:26;159331.50;;;2.91;100.00
42945;BME280;28584;42.636;23.294;2022-12-18T10:29:52;159355.44;;;3.00;100.00
42945;BME280;28584;42.636;23.294;2022-12-18T10:32:26;159354.09;;;3.00;100.00
42945;BME280;28584;42.636;23.294;2022-12-18T10:34:55;159279.75;;;2.71;100.00
42945;BME280;28584;42.636;23.294;2022-12-18T10:37:24;159289.00;;;2.75;100.00
42945;BME280;28584;42.636;23.294;2022-12-18T10:40:09;159323.53;;;2.88;100.00
42945;BME280;28584;42.636;23.294;2022-12-18T10:42:35;159312.91;;;2.84;100.00
42945;BME280;28584;42.636;23.294;2022-12-18T10:45:12;159302.31;;;2.80;100.00
42945;BME280;28584;42.636;23.294;2022-12-18T10:47:45;159270.41;;;2.68;100.00
42945;BME280;28584;42.636;23.294;2022-12-18T10:50:20;159299.66;;;2.79;100.00
42945;BME280;28584;42.636;23.294;2022-12-18T10:52:55;159319.56;;;2.86;100.00
42945;BME280;28584;42.636;23.294;2022-12-18T10:55:20;159326.19;;;2.89;100.00
42945;BME280;28584;42.636;23.294;2022-12-18T10:57:46;159304.94;;;2.81;100.00
42945;BME280;28584;42.636;23.294;2022-12-18T11:00:30;159315.56;;;2.85;100.00
42945;BME280;28584;42.636;23.294;2022-12-18T11:02:56;159323.53;;;2.88;100.00
42945;BME280;28584;42.636;23.294;2022-12-18T11:05:30;159311.56;;;2.83;100.00
42945;BME280;28584;42.636;23.294;2022-12-18T11:07:57;159354.09;;;3.00;100.00
42945;BME280;28584;42.636;23.294;2022-12-18T11:10:37;159355.44;;;3.00;100.00
42945;BME280;28584;42.636;23.294;2022-12-18T11:13:18;159336.84;;;2.93;100.00
42945;BME280;28584;42.636;23.294;2022-12-18T11:15:46;159307.59;;;2.82;100.00
42945;BME280;28584;42.636;23.294;2022-12-18T11:18:22;159344.75;;;2.96;100.00
42945;BME280;28584;42.636;23.294;2022-12-18T11:20:52;159342.13;;;2.95;100.00
42945;BME280;28584;42.636;23.294;2022-12-18T11:23:20;159331.50;;;2.91;100.00
42945;BME280;28584;42.636;23.294;2022-12-18T11:26:06;159352.72;;;2.99;100.00
42945;BME280;28584;42.636;23.294;2022-12-18T11:36:31;159332.84;;;2.92;100.00
42945;BME280;28584;42.636;23.294;2022-12-18T11:38:59;159307.59;;;2.82;100.00
42945;BME280;28584;42.636;23.294;2022-12-18T11:41:39;159273.13;;;2.69;100.00
42945;BME280;28584;42.636;23.294;2022-12-18T11:44:51;159289.00;;;2.75;100.00
42945;BME280;28584;42.636;23.294;2022-12-18T11:47:38;159323.53;;;2.88;100.00
42945;BME280;28584;42.636;23.294;2022-12-18T11:50:19;159262.44;;;2.65;100.00
42945;BME280;28584;42.636;23.294;2022-12-18T11:52:47;159269.13;;;2.67;100.00
42945;BME280;28584;42.636;23.294;2022-12-18T11:55:15;159315.56;;;2.85;100.00
42945;BME280;28584;42.636;23.294;2022-12-18T12:00:28;159352.72;;;2.99;100.00
42945;BME280;28584;42.636;23.294;2022-12-18T12:03:19;159368.69;;;3.05;100.00
42945;BME280;28584;42.636;23.294;2022-12-18T12:16:57;159318.25;;;2.86;100.00
42945;BME280;28584;42.636;23.294;2022-12-18T12:25:01;159338.13;;;2.93;100.00
42945;BME280;28584;42.636;23.294;2022-12-18T12:30:29;159330.16;;;2.90;100.00
42945;BME280;28584;42.636;23.294;2022-12-18T12:35:51;159291.69;;;2.76;100.00
42945;BME280;28584;42.636;23.294;2022-12-18T12:38:24;159320.88;;;2.87;100.00
42945;BME280;28584;42.636;23.294;2022-12-18T12:41:04;159320.88;;;2.87;100.00
42945;BME280;28584;42.636;23.294;2022-12-18T12:43:38;159323.53;;;2.88;100.00
42945;BME280;28584;42.636;23.294;2022-12-18T12:46:10;159299.66;;;2.79;100.00
42945;BME280;28584;42.636;23.294;2022-12-18T12:51:16;159290.34;;;2.75;100.00
42945;BME280;28584;42.636;23.294;2022-12-18T12:53:42;159320.88;;;2.87;100.00
42945;BME280;28584;42.636;23.294;2022-12-18T12:56:10;159310.28;;;2.83;100.00
42945;BME280;28584;42.636;23.294;2022-12-18T12:59:01;159283.72;;;2.73;100.00
42945;BME280;28584;42.636;23.294;2022-12-18T13:04:52;159258.53;;;2.63;100.00
42945;BME280;28584;42.636;23.294;2022-12-18T13:07:28;159249.19;;;2.60;100.00
42945;BME280;28584;42.636;23.294;2022-12-18T13:13:04;159279.75;;;2.71;100.00
42945;BME280;28584;42.636;23.294;2022-12-18T13:15:33;159310.28;;;2.83;100.00
42945;BME280;28584;42.636;23.294;2022-12-18T13:20:36;159306.28;;;2.81;100.00
42945;BME280;28584;42.636;23.294;2022-12-18T13:23:26;159286.38;;;2.74;100.00
42945;BME280;28584;42.636;23.294;2022-12-18T13:28:24;159246.56;;;2.59;100.00
42945;BME280;28584;42.636;23.294;2022-12-18T13:31:08;159238.59;;;2.56;100.00
42945;BME280;28584;42.636;23.294;2022-12-18T13:33:44;159246.56;;;2.59;100.00
42945;BME280;28584;42.636;23.294;2022-12-18T13:41:40;159270.41;;;2.68;100.00
42945;BME280;28584;42.636;23.294;2022-12-18T13:46:51;159277.09;;;2.70;100.00
42945;BME280;28584;42.636;23.294;2022-12-18T13:49:24;159277.09;;;2.70;100.00
42945;BME280;28584;42.636;23.294;2022-12-18T13:51:54;159281.03;;;2.72;100.00
42945;BME280;28584;42.636;23.294;2022-12-18T13:54:39;159271.75;;;2.68;100.00
42945;BME280;28584;42.636;23.294;2022-12-18T13:59:53;159277.09;;;2.70;100.00
42945;BME280;28584;42.636;23.294;2022-12-18T14:02:24;159275.75;;;2.70;100.00
42945;BME280;28584;42.636;23.294;2022-12-18T14:04:52;159287.72;;;2.74;100.00
42945;BME280;28584;42.636;23.294;2022-12-18T14:07:25;159287.72;;;2.74;100.00
42945;BME280;28584;42.636;23.294;2022-12-18T14:09:53;159257.16;;;2.63;100.00
42945;BME280;28584;42.636;23.294;2022-12-18T14:12:24;159242.56;;;2.57;100.00
42945;BME280;28584;42.636;23.294;2022-12-18T14:18:01;159261.16;;;2.64;100.00
42945;BME280;28584;42.636;23.294;2022-12-18T14:20:29;159237.25;;;2.55;100.00
42945;BME280;28584;42.636;23.294;2022-12-18T14:22:56;159241.22;;;2.57;100.00
42945;BME280;28584;42.636;23.294;2022-12-18T14:25:25;159210.69;;;2.45;100.00
42945;BME280;28584;42.636;23.294;2022-12-18T14:30:35;159212.03;;;2.46;100.00
42945;BME280;28584;42.636;23.294;2022-12-18T14:35:35;159218.66;;;2.48;100.00
42945;BME280;28584;42.636;23.294;2022-12-18T14:40:55;159226.63;;;2.51;100.00
42945;BME280;28584;42.636;23.294;2022-12-18T14:43:21;159202.72;;;2.42;100.00
42945;BME280;28584;42.636;23.294;2022-12-18T14:45:47;159204.06;;;2.43;100.00
42945;BME280;28584;42.636;23.294;2022-12-18T14:48:25;159192.13;;;2.38;100.00